sensor_id;sensor_type;location;lat;lon;timestamp;temperature;humidity
6986;DHT22;3533;51.246;6.850;2023-03-29T00:00:11;18.20;41.40
6986;DHT22;3533;51.246;6.850;2023-03-29T00:02:42;18.20;41.40
6986;DHT22;3533;51.246;6.850;2023-03-29T00:05:17;18.20;41.40
6986;DHT22;3533;51.246;6.850;2023-03-29T00:07:43;18.20;41.40
6986;DHT22;3533;51.246;6.850;2023-03-29T00:10:10;18.20;41.40
6986;DHT22;3533;51.246;6.850;2023-03-29T00:12:37;18.20;41.40
6986;DHT22;3533;51.246;6.850;2023-03-29T00:15:04;18.20;41.40
6986;DHT22;3533;51.246;6.850;2023-03-29T00:17:30;18.20;41.40
6986;DHT22;3533;51.246;6.850;2023-03-29T00:19:56;18.20;41.40
6986;DHT22;3533;51.246;6.850;2023-03-29T00:22:21;18.20;41.40
6986;DHT22;3533;51.246;6.850;2023-03-29T00:24:51;18.20;41.40
6986;DHT22;3533;51.246;6.850;2023-03-29T00:27:19;18.20;41.50
6986;DHT22;3533;51.246;6.850;2023-03-29T00:29:44;18.20;41.50
6986;DHT22;3533;51.246;6.850;2023-03-29T00:32:10;18.20;41.40
6986;DHT22;3533;51.246;6.850;2023-03-29T00:34:36;18.20;41.50
6986;DHT22;3533;51.246;6.850;2023-03-29T00:37:02;18.20;41.40
6986;DHT22;3533;51.246;6.850;2023-03-29T00:39:29;18.20;41.40
6986;DHT22;3533;51.246;6.850;2023-03-29T00:41:55;18.20;41.50
6986;DHT22;3533;51.246;6.850;2023-03-29T00:47:32;18.20;41.40
6986;DHT22;3533;51.246;6.850;2023-03-29T00:50:03;18.20;41.40
6986;DHT22;3533;51.246;6.850;2023-03-29T00:52:32;18.20;41.50
6986;DHT22;3533;51.246;6.850;2023-03-29T00:55:02;18.20;41.50
6986;DHT22;3533;51.246;6.850;2023-03-29T00:57:30;18.20;41.40
6986;DHT22;3533;51.246;6.850;2023-03-29T00:59:58;18.20;41.50
6986;DHT22;3533;51.246;6.850;2023-03-29T01:02:27;18.20;41.50
6986;DHT22;3533;51.246;6.850;2023-03-29T01:05:05;18.20;41.40
6986;DHT22;3533;51.246;6.850;2023-03-29T01:07:43;18.20;41.40
6986;DHT22;3533;51.246;6.850;2023-03-29T01:13:22;18.20;41.40
6986;DHT22;3533;51.246;6.850;2023-03-29T01:15:52;18.20;41.50
6986;DHT22;3533;51.246;6.850;2023-03-29T01:18:18;18.20;41.40
6986;DHT22;3533;51.246;6.850;2023-03-29T01:21:14;18.20;41.50
6986;DHT22;3533;51.246;6.850;2023-03-29T01:26:17;18.20;41.50
6986;DHT22;3533;51.246;6.850;2023-03-29T01:28:50;18.20;41.50
6986;DHT22;3533;51.246;6.850;2023-03-29T01:31:31;18.20;41.50
6986;DHT22;3533;51.246;6.850;2023-03-29T01:34:11;18.20;41.40
6986;DHT22;3533;51.246;6.850;2023-03-29T01:36:45;18.20;41.40
6986;DHT22;3533;51.246;6.850;2023-03-29T01:39:14;18.20;41.50
6986;DHT22;3533;51.246;6.850;2023-03-29T01:44:56;18.20;41.50
6986;DHT22;3533;51.246;6.850;2023-03-29T01:47:41;18.20;41.40
6986;DHT22;3533;51.246;6.850;2023-03-29T01:50:34;18.20;41.50
6986;DHT22;3533;51.246;6.850;2023-03-29T01:53:15;18.20;41.50
6986;DHT22;3533;51.246;6.850;2023-03-29T01:55:55;18.20;41.50
6986;DHT22;3533;51.246;6.850;2023-03-29T01:58:28;18.20;41.50
6986;DHT22;3533;51.246;6.850;2023-03-29T02:00:57;18.20;41.50
6986;DHT22;3533;51.246;6.850;2023-03-29T02:03:24;18.20;41.50
6986;DHT22;3533;51.246;6.850;2023-03-29T02:05:52;18.20;41.50
6986;DHT22;3533;51.246;6.850;2023-03-29T02:08:20;18.20;41.50
6986;DHT22;3533;51.246;6.850;2023-03-29T02:10:46;18.20;41.50
6986;DHT22;3533;51.246;6.850;2023-03-29T02:13:13;18.10;41.30
6986;DHT22;3533;51.246;6.850;2023-03-29T02:15:38;18.20;41.50
6986;DHT22;3533;51.246;6.850;2023-03-29T02:18:05;18.20;41.50
6986;DHT22;3533;51.246;6.850;2023-03-29T02:20:34;18.10;41.40
6986;DHT22;3533;51.246;6.850;2023-03-29T02:23:32;18.20;41.50
6986;DHT22;3533;51.246;6.850;2023-03-29T02:25:59;18.20;41.50
6986;DHT22;3533;51.246;6.850;2023-03-29T02:28:26;18.20;41.50
6986;DHT22;3533;51.246;6.850;2023-03-29T02:31:11;18.20;41.50
6986;DHT22;3533;51.246;6.850;2023-03-29T02:38:43;18.10;41.40
6986;DHT22;3533;51.246;6.850;2023-03-29T02:41:09;18.20;41.50
6986;DHT22;3533;51.246;6.850;2023-03-29T02:43:35;18.10;41.40
6986;DHT22;3533;51.246;6.850;2023-03-29T02:46:03;18.20;41.50
6986;DHT22;3533;51.246;6.850;2023-03-29T02:48:31;18.20;41.50
6986;DHT22;3533;51.246;6.850;2023-03-29T02:51:00;18.10;41.40
6986;DHT22;3533;51.246;6.850;2023-03-29T02:53:35;18.20;41.50
6986;DHT22;3533;51.246;6.850;2023-03-29T02:56:04;18.10;41.40
6986;DHT22;3533;51.246;6.850;2023-03-29T02:58:29;18.10;41.40
6986;DHT22;3533;51.246;6.850;2023-03-29T03:00:58;18.10;41.50
6986;DHT22;3533;51.246;6.850;2023-03-29T03:03:25;18.10;41.40
6986;DHT22;3533;51.246;6.850;2023-03-29T03:05:51;18.10;41.40
6986;DHT22;3533;51.246;6.850;2023-03-29T03:08:18;18.10;41.40
6986;DHT22;3533;51.246;6.850;2023-03-29T03:10:44;18.10;41.40
6986;DHT22;3533;51.246;6.850;2023-03-29T03:13:10;18.10;41.40
6986;DHT22;3533;51.246;6.850;2023-03-29T03:15:36;18.10;41.40
6986;DHT22;3533;51.246;6.850;2023-03-29T03:18:02;18.10;41.30
6986;DHT22;3533;51.246;6.850;2023-03-29T03:20:28;18.10;41.40
6986;DHT22;3533;51.246;6.850;2023-03-29T03:22:55;18.10;41.40
6986;DHT22;3533;51.246;6.850;2023-03-29T03:25:22;18.10;41.40
6986;DHT22;3533;51.246;6.850;2023-03-29T03:27:48;18.10;42.10
6986;DHT22;3533;51.246;6.850;2023-03-29T03:30:14;18.10;41.40
6986;DHT22;3533;51.246;6.850;2023-03-29T03:32:40;18.10;41.40
6986;DHT22;3533;51.246;6.850;2023-03-29T03:35:08;18.10;41.30
6986;DHT22;3533;51.246;6.850;2023-03-29T03:37:36;18.10;41.30
6986;DHT22;3533;51.246;6.850;2023-03-29T03:40:03;18.10;41.30
6986;DHT22;3533;51.246;6.850;2023-03-29T03:42:33;18.10;41.40
6986;DHT22;3533;51.246;6.850;2023-03-29T03:44:59;18.10;41.40
6986;DHT22;3533;51.246;6.850;2023-03-29T03:47:25;18.10;41.40
6986;DHT22;3533;51.246;6.850;2023-03-29T03:49:50;18.10;41.40
6986;DHT22;3533;51.246;6.850;2023-03-29T03:52:17;18.10;41.40
6986;DHT22;3533;51.246;6.850;2023-03-29T03:54:43;18.10;41.40
6986;DHT22;3533;51.246;6.850;2023-03-29T03:57:11;18.10;41.40
6986;DHT22;3533;51.246;6.850;2023-03-29T03:59:36;18.10;41.30
6986;DHT22;3533;51.246;6.850;2023-03-29T04:02:03;18.10;41.40
6986;DHT22;3533;51.246;6.850;2023-03-29T04:04:29;18.10;41.30
6986;DHT22;3533;51.246;6.850;2023-03-29T04:06:55;18.10;41.30
6986;DHT22;3533;51.246;6.850;2023-03-29T04:09:30;18.10;41.40
6986;DHT22;3533;51.246;6.850;2023-03-29T04:11:57;18.20;41.40
6986;DHT22;3533;51.246;6.850;2023-03-29T04:14:23;18.20;41.30
6986;DHT22;3533;51.246;6.850;2023-03-29T04:16:50;18.20;41.20
6986;DHT22;3533;51.246;6.850;2023-03-29T04:19:17;18.20;41.20
6986;DHT22;3533;51.246;6.850;2023-03-29T04:21:42;18.20;41.10
6986;DHT22;3533;51.246;6.850;2023-03-29T04:24:10;18.30;41.10
6986;DHT22;3533;51.246;6.850;2023-03-29T04:26:36;18.30;41.10
6986;DHT22;3533;51.246;6.850;2023-03-29T04:29:02;18.30;41.10
6986;DHT22;3533;51.246;6.850;2023-03-29T04:31:29;18.30;41.10
6986;DHT22;3533;51.246;6.850;2023-03-29T04:33:54;18.30;41.10
6986;DHT22;3533;51.246;6.850;2023-03-29T04:36:20;18.30;41.10
6986;DHT22;3533;51.246;6.850;2023-03-29T04:38:46;18.30;41.00
6986;DHT22;3533;51.246;6.850;2023-03-29T04:41:12;18.30;41.00
6986;DHT22;3533;51.246;6.850;2023-03-29T04:43:37;18.30;41.00
6986;DHT22;3533;51.246;6.850;2023-03-29T04:46:03;18.30;41.10
6986;DHT22;3533;51.246;6.850;2023-03-29T04:48:31;18.30;41.10
6986;DHT22;3533;51.246;6.850;2023-03-29T04:50:57;18.30;41.10
6986;DHT22;3533;51.246;6.850;2023-03-29T04:53:23;18.30;41.10
6986;DHT22;3533;51.246;6.850;2023-03-29T04:55:49;18.30;41.10
6986;DHT22;3533;51.246;6.850;2023-03-29T04:58:14;18.30;41.10
6986;DHT22;3533;51.246;6.850;2023-03-29T05:00:40;18.30;41.10
6986;DHT22;3533;51.246;6.850;2023-03-29T05:03:07;18.30;41.10
6986;DHT22;3533;51.246;6.850;2023-03-29T05:05:35;18.30;41.10
6986;DHT22;3533;51.246;6.850;2023-03-29T05:08:02;18.30;41.00
6986;DHT22;3533;51.246;6.850;2023-03-29T05:10:27;18.30;41.10
6986;DHT22;3533;51.246;6.850;2023-03-29T05:12:53;18.30;41.10
6986;DHT22;3533;51.246;6.850;2023-03-29T05:15:21;18.30;41.00
6986;DHT22;3533;51.246;6.850;2023-03-29T05:17:47;18.30;41.00
6986;DHT22;3533;51.246;6.850;2023-03-29T05:20:13;18.30;41.10
6986;DHT22;3533;51.246;6.850;2023-03-29T05:22:40;18.30;41.00
6986;DHT22;3533;51.246;6.850;2023-03-29T05:25:06;18.30;41.00
6986;DHT22;3533;51.246;6.850;2023-03-29T05:27:33;18.30;41.00
6986;DHT22;3533;51.246;6.850;2023-03-29T05:29:59;18.30;41.00
6986;DHT22;3533;51.246;6.850;2023-03-29T05:32:26;18.30;41.00
6986;DHT22;3533;51.246;6.850;2023-03-29T05:34:52;18.30;41.00
6986;DHT22;3533;51.246;6.850;2023-03-29T05:37:17;18.40;41.00
6986;DHT22;3533;51.246;6.850;2023-03-29T05:39:43;18.30;40.90
6986;DHT22;3533;51.246;6.850;2023-03-29T05:42:09;18.40;41.10
6986;DHT22;3533;51.246;6.850;2023-03-29T05:44:38;18.30;41.00
6986;DHT22;3533;51.246;6.850;2023-03-29T05:47:04;18.30;41.00
6986;DHT22;3533;51.246;6.850;2023-03-29T05:49:29;18.30;41.00
6986;DHT22;3533;51.246;6.850;2023-03-29T05:51:55;18.30;41.00
6986;DHT22;3533;51.246;6.850;2023-03-29T05:54:22;18.30;41.10
6986;DHT22;3533;51.246;6.850;2023-03-29T05:56:48;18.30;41.10
6986;DHT22;3533;51.246;6.850;2023-03-29T05:59:13;18.30;41.10
6986;DHT22;3533;51.246;6.850;2023-03-29T06:01:39;18.30;41.20
6986;DHT22;3533;51.246;6.850;2023-03-29T06:04:06;18.30;41.20
6986;DHT22;3533;51.246;6.850;2023-03-29T06:06:31;18.30;41.10
6986;DHT22;3533;51.246;6.850;2023-03-29T06:08:58;18.30;41.20
6986;DHT22;3533;51.246;6.850;2023-03-29T06:11:23;18.30;41.20
6986;DHT22;3533;51.246;6.850;2023-03-29T06:13:50;18.30;41.20
6986;DHT22;3533;51.246;6.850;2023-03-29T06:16:17;18.30;41.20
6986;DHT22;3533;51.246;6.850;2023-03-29T06:18:42;18.30;41.60
6986;DHT22;3533;51.246;6.850;2023-03-29T06:21:09;18.30;41.10
6986;DHT22;3533;51.246;6.850;2023-03-29T06:23:35;18.30;41.20
6986;DHT22;3533;51.246;6.850;2023-03-29T06:26:01;18.30;41.10
6986;DHT22;3533;51.246;6.850;2023-03-29T06:28:26;18.30;41.10
6986;DHT22;3533;51.246;6.850;2023-03-29T06:30:52;18.30;41.20
6986;DHT22;3533;51.246;6.850;2023-03-29T06:33:29;18.30;41.10
6986;DHT22;3533;51.246;6.850;2023-03-29T06:35:55;18.30;41.20
6986;DHT22;3533;51.246;6.850;2023-03-29T06:38:20;18.30;41.10
6986;DHT22;3533;51.246;6.850;2023-03-29T06:40:46;18.30;41.20
6986;DHT22;3533;51.246;6.850;2023-03-29T06:43:12;18.30;42.00
6986;DHT22;3533;51.246;6.850;2023-03-29T06:45:38;18.30;41.20
6986;DHT22;3533;51.246;6.850;2023-03-29T06:48:05;18.30;41.20
6986;DHT22;3533;51.246;6.850;2023-03-29T06:50:32;18.30;41.20
6986;DHT22;3533;51.246;6.850;2023-03-29T06:52:58;18.30;41.20
6986;DHT22;3533;51.246;6.850;2023-03-29T06:55:24;18.30;41.20
6986;DHT22;3533;51.246;6.850;2023-03-29T06:57:50;18.30;41.20
6986;DHT22;3533;51.246;6.850;2023-03-29T07:00:17;18.30;41.20
6986;DHT22;3533;51.246;6.850;2023-03-29T07:02:47;18.30;41.20
6986;DHT22;3533;51.246;6.850;2023-03-29T07:05:14;18.30;41.20
6986;DHT22;3533;51.246;6.850;2023-03-29T07:07:42;18.30;41.20
6986;DHT22;3533;51.246;6.850;2023-03-29T07:10:31;18.30;41.20
6986;DHT22;3533;51.246;6.850;2023-03-29T07:12:58;18.30;41.20
6986;DHT22;3533;51.246;6.850;2023-03-29T07:15:27;18.30;41.20
6986;DHT22;3533;51.246;6.850;2023-03-29T07:17:53;18.30;41.20
6986;DHT22;3533;51.246;6.850;2023-03-29T07:20:20;18.30;41.20
6986;DHT22;3533;51.246;6.850;2023-03-29T07:22:47;18.30;41.20
6986;DHT22;3533;51.246;6.850;2023-03-29T07:25:16;18.30;41.20
6986;DHT22;3533;51.246;6.850;2023-03-29T07:27:43;18.30;41.20
6986;DHT22;3533;51.246;6.850;2023-03-29T07:30:11;18.30;41.20
6986;DHT22;3533;51.246;6.850;2023-03-29T07:32:39;18.30;41.20
6986;DHT22;3533;51.246;6.850;2023-03-29T07:35:06;18.30;41.20
6986;DHT22;3533;51.246;6.850;2023-03-29T07:37:33;18.30;41.20
6986;DHT22;3533;51.246;6.850;2023-03-29T07:39:59;18.30;41.20
6986;DHT22;3533;51.246;6.850;2023-03-29T07:42:27;18.30;41.30
6986;DHT22;3533;51.246;6.850;2023-03-29T07:44:53;18.30;41.30
6986;DHT22;3533;51.246;6.850;2023-03-29T07:47:19;18.30;41.30
6986;DHT22;3533;51.246;6.850;2023-03-29T07:49:45;18.30;41.20
6986;DHT22;3533;51.246;6.850;2023-03-29T07:52:10;18.30;41.30
6986;DHT22;3533;51.246;6.850;2023-03-29T07:54:36;18.30;41.30
6986;DHT22;3533;51.246;6.850;2023-03-29T07:57:02;18.30;41.30
6986;DHT22;3533;51.246;6.850;2023-03-29T07:59:28;18.30;41.30
6986;DHT22;3533;51.246;6.850;2023-03-29T08:01:53;18.30;41.30
6986;DHT22;3533;51.246;6.850;2023-03-29T08:04:19;18.30;41.30
6986;DHT22;3533;51.246;6.850;2023-03-29T08:06:45;18.30;41.30
6986;DHT22;3533;51.246;6.850;2023-03-29T08:09:11;18.30;41.30
6986;DHT22;3533;51.246;6.850;2023-03-29T08:11:37;18.30;41.30
6986;DHT22;3533;51.246;6.850;2023-03-29T08:14:04;18.30;41.30
6986;DHT22;3533;51.246;6.850;2023-03-29T08:16:30;18.30;41.30
6986;DHT22;3533;51.246;6.850;2023-03-29T08:18:56;18.30;41.30
6986;DHT22;3533;51.246;6.850;2023-03-29T08:21:22;18.30;41.30
6986;DHT22;3533;51.246;6.850;2023-03-29T08:23:47;18.30;41.30
6986;DHT22;3533;51.246;6.850;2023-03-29T08:26:13;18.30;41.30
6986;DHT22;3533;51.246;6.850;2023-03-29T08:28:40;18.30;41.30
6986;DHT22;3533;51.246;6.850;2023-03-29T08:31:06;18.30;41.30
6986;DHT22;3533;51.246;6.850;2023-03-29T08:33:32;18.30;41.40
6986;DHT22;3533;51.246;6.850;2023-03-29T08:35:58;18.30;41.40
6986;DHT22;3533;51.246;6.850;2023-03-29T08:38:23;18.30;42.10
6986;DHT22;3533;51.246;6.850;2023-03-29T08:40:49;18.30;41.40
6986;DHT22;3533;51.246;6.850;2023-03-29T08:48:37;18.30;41.40
6986;DHT22;3533;51.246;6.850;2023-03-29T08:51:27;18.30;41.40
6986;DHT22;3533;51.246;6.850;2023-03-29T08:56:50;18.30;41.50
6986;DHT22;3533;51.246;6.850;2023-03-29T08:59:19;18.30;42.20
6986;DHT22;3533;51.246;6.850;2023-03-29T09:01:48;18.30;41.50
6986;DHT22;3533;51.246;6.850;2023-03-29T09:04:22;18.30;41.50
6986;DHT22;3533;51.246;6.850;2023-03-29T09:06:49;18.30;41.50
6986;DHT22;3533;51.246;6.850;2023-03-29T09:09:19;18.30;41.50
6986;DHT22;3533;51.246;6.850;2023-03-29T09:22:56;18.20;41.40
6986;DHT22;3533;51.246;6.850;2023-03-29T09:25:47;18.20;42.30
6986;DHT22;3533;51.246;6.850;2023-03-29T09:28:36;18.20;41.50
6986;DHT22;3533;51.246;6.850;2023-03-29T09:31:24;18.20;41.50
6986;DHT22;3533;51.246;6.850;2023-03-29T09:34:42;18.20;41.40
6986;DHT22;3533;51.246;6.850;2023-03-29T09:36:54;18.20;41.50
6986;DHT22;3533;51.246;6.850;2023-03-29T09:39:21;18.20;41.60
6986;DHT22;3533;51.246;6.850;2023-03-29T09:42:07;18.20;41.60
6986;DHT22;3533;51.246;6.850;2023-03-29T09:44:37;18.20;41.50
6986;DHT22;3533;51.246;6.850;2023-03-29T09:47:16;18.20;41.60
6986;DHT22;3533;51.246;6.850;2023-03-29T09:49:51;18.20;41.60
6986;DHT22;3533;51.246;6.850;2023-03-29T09:52:19;18.20;41.60
6986;DHT22;3533;51.246;6.850;2023-03-29T09:54:46;18.20;41.60
6986;DHT22;3533;51.246;6.850;2023-03-29T09:57:15;18.20;41.60
6986;DHT22;3533;51.246;6.850;2023-03-29T09:59:42;18.20;41.60
6986;DHT22;3533;51.246;6.850;2023-03-29T10:02:10;18.20;41.60
6986;DHT22;3533;51.246;6.850;2023-03-29T10:04:37;18.20;41.60
6986;DHT22;3533;51.246;6.850;2023-03-29T10:07:05;18.20;41.60
6986;DHT22;3533;51.246;6.850;2023-03-29T10:09:32;18.20;41.60
6986;DHT22;3533;51.246;6.850;2023-03-29T10:12:00;18.20;41.70
6986;DHT22;3533;51.246;6.850;2023-03-29T10:16:58;18.20;41.60
6986;DHT22;3533;51.246;6.850;2023-03-29T10:19:51;18.20;41.70
6986;DHT22;3533;51.246;6.850;2023-03-29T10:22:21;18.20;41.60
6986;DHT22;3533;51.246;6.850;2023-03-29T10:24:51;18.20;41.70
6986;DHT22;3533;51.246;6.850;2023-03-29T10:27:26;18.20;41.60
6986;DHT22;3533;51.246;6.850;2023-03-29T10:29:53;18.20;41.70
6986;DHT22;3533;51.246;6.850;2023-03-29T10:32:45;18.20;41.70
6986;DHT22;3533;51.246;6.850;2023-03-29T10:35:27;18.20;41.70
6986;DHT22;3533;51.246;6.850;2023-03-29T10:37:55;18.20;41.70
6986;DHT22;3533;51.246;6.850;2023-03-29T10:40:26;18.20;41.80
6986;DHT22;3533;51.246;6.850;2023-03-29T10:42:57;18.20;41.70
6986;DHT22;3533;51.246;6.850;2023-03-29T10:45:33;18.20;41.70
6986;DHT22;3533;51.246;6.850;2023-03-29T10:47:59;18.20;41.70
6986;DHT22;3533;51.246;6.850;2023-03-29T10:50:31;18.20;41.70
6986;DHT22;3533;51.246;6.850;2023-03-29T10:52:59;18.20;41.70
6986;DHT22;3533;51.246;6.850;2023-03-29T10:55:31;18.20;41.70
6986;DHT22;3533;51.246;6.850;2023-03-29T10:58:24;18.20;41.70
6986;DHT22;3533;51.246;6.850;2023-03-29T11:00:54;18.20;41.70
6986;DHT22;3533;51.246;6.850;2023-03-29T11:06:32;18.20;41.70
6986;DHT22;3533;51.246;6.850;2023-03-29T11:09:05;18.20;41.70
6986;DHT22;3533;51.246;6.850;2023-03-29T11:11:58;18.20;41.70
6986;DHT22;3533;51.246;6.850;2023-03-29T11:17:40;18.20;41.70
6986;DHT22;3533;51.246;6.850;2023-03-29T11:22:49;18.20;41.80
6986;DHT22;3533;51.246;6.850;2023-03-29T11:25:28;18.20;41.80
6986;DHT22;3533;51.246;6.850;2023-03-29T11:30:50;18.20;41.80
6986;DHT22;3533;51.246;6.850;2023-03-29T11:33:23;18.20;41.80
6986;DHT22;3533;51.246;6.850;2023-03-29T11:38:36;18.20;41.80
6986;DHT22;3533;51.246;6.850;2023-03-29T11:41:17;18.20;41.80
6986;DHT22;3533;51.246;6.850;2023-03-29T11:46:43;18.20;41.80
6986;DHT22;3533;51.246;6.850;2023-03-29T11:49:36;18.20;41.80
6986;DHT22;3533;51.246;6.850;2023-03-29T11:52:27;18.20;41.80
6986;DHT22;3533;51.246;6.850;2023-03-29T11:54:57;18.20;41.80
6986;DHT22;3533;51.246;6.850;2023-03-29T11:57:43;18.20;41.80
6986;DHT22;3533;51.246;6.850;2023-03-29T12:00:15;18.20;41.90
6986;DHT22;3533;51.246;6.850;2023-03-29T12:05:42;18.20;41.90
6986;DHT22;3533;51.246;6.850;2023-03-29T12:08:29;18.20;41.90
6986;DHT22;3533;51.246;6.850;2023-03-29T12:11:10;18.20;41.90
6986;DHT22;3533;51.246;6.850;2023-03-29T12:14:13;18.20;42.70
6986;DHT22;3533;51.246;6.850;2023-03-29T12:19:17;18.20;41.90
6986;DHT22;3533;51.246;6.850;2023-03-29T12:21:45;18.20;42.00
6986;DHT22;3533;51.246;6.850;2023-03-29T12:24:12;18.20;41.80
6986;DHT22;3533;51.246;6.850;2023-03-29T12:32:33;18.20;41.90
6986;DHT22;3533;51.246;6.850;2023-03-29T12:40:43;18.20;41.90
6986;DHT22;3533;51.246;6.850;2023-03-29T12:46:24;18.20;42.00
6986;DHT22;3533;51.246;6.850;2023-03-29T12:48:54;18.20;41.90
6986;DHT22;3533;51.246;6.850;2023-03-29T12:51:28;18.20;42.00
6986;DHT22;3533;51.246;6.850;2023-03-29T12:54:16;18.20;42.00
6986;DHT22;3533;51.246;6.850;2023-03-29T12:56:54;18.20;42.00
6986;DHT22;3533;51.246;6.850;2023-03-29T12:59:47;18.20;42.00
6986;DHT22;3533;51.246;6.850;2023-03-29T13:09:54;18.20;42.00
6986;DHT22;3533;51.246;6.850;2023-03-29T13:12:27;18.20;42.00
6986;DHT22;3533;51.246;6.850;2023-03-29T13:18:25;18.30;42.10
6986;DHT22;3533;51.246;6.850;2023-03-29T13:24:04;18.20;42.00
6986;DHT22;3533;51.246;6.850;2023-03-29T13:26:39;18.20;42.00
6986;DHT22;3533;51.246;6.850;2023-03-29T13:29:22;18.20;42.00
6986;DHT22;3533;51.246;6.850;2023-03-29T13:32:23;18.30;42.00
6986;DHT22;3533;51.246;6.850;2023-03-29T13:35:21;18.30;42.00
6986;DHT22;3533;51.246;6.850;2023-03-29T13:38:11;18.30;41.90
6986;DHT22;3533;51.246;6.850;2023-03-29T13:43:17;18.30;42.00
6986;DHT22;3533;51.246;6.850;2023-03-29T13:48:25;18.30;42.00
6986;DHT22;3533;51.246;6.850;2023-03-29T13:51:16;18.30;42.10
6986;DHT22;3533;51.246;6.850;2023-03-29T13:53:52;18.30;42.10
6986;DHT22;3533;51.246;6.850;2023-03-29T13:56:24;18.30;42.00
6986;DHT22;3533;51.246;6.850;2023-03-29T13:58:53;18.20;42.00
6986;DHT22;3533;51.246;6.850;2023-03-29T14:01:28;18.20;42.00
6986;DHT22;3533;51.246;6.850;2023-03-29T14:03:56;18.30;42.20
6986;DHT22;3533;51.246;6.850;2023-03-29T14:06:33;18.30;42.10
6986;DHT22;3533;51.246;6.850;2023-03-29T14:09:04;18.30;42.10
6986;DHT22;3533;51.246;6.850;2023-03-29T14:11:30;18.30;42.10
6986;DHT22;3533;51.246;6.850;2023-03-29T14:13:58;18.30;42.10
6986;DHT22;3533;51.246;6.850;2023-03-29T14:16:30;18.20;42.00
6986;DHT22;3533;51.246;6.850;2023-03-29T14:21:48;18.30;42.10
6986;DHT22;3533;51.246;6.850;2023-03-29T14:24:24;18.30;42.10
6986;DHT22;3533;51.246;6.850;2023-03-29T14:26:52;18.30;42.10
6986;DHT22;3533;51.246;6.850;2023-03-29T14:29:18;18.30;42.10
6986;DHT22;3533;51.246;6.850;2023-03-29T14:31:43;18.20;42.10
6986;DHT22;3533;51.246;6.850;2023-03-29T14:34:15;18.30;42.10
6986;DHT22;3533;51.246;6.850;2023-03-29T14:36:44;18.30;42.30
6986;DHT22;3533;51.246;6.850;2023-03-29T14:39:19;18.30;42.20
6986;DHT22;3533;51.246;6.850;2023-03-29T14:41:55;18.30;42.20
6986;DHT22;3533;51.246;6.850;2023-03-29T14:44:27;18.30;42.20
6986;DHT22;3533;51.246;6.850;2023-03-29T14:46:54;18.30;42.20
6986;DHT22;3533;51.246;6.850;2023-03-29T14:49:21;18.20;42.10
6986;DHT22;3533;51.246;6.850;2023-03-29T14:51:48;18.30;42.20
6986;DHT22;3533;51.246;6.850;2023-03-29T14:54:30;18.30;42.30
6986;DHT22;3533;51.246;6.850;2023-03-29T14:56:57;18.30;42.20
6986;DHT22;3533;51.246;6.850;2023-03-29T14:59:35;18.30;42.20
6986;DHT22;3533;51.246;6.850;2023-03-29T15:02:02;18.30;42.20
6986;DHT22;3533;51.246;6.850;2023-03-29T15:04:34;18.30;42.20
6986;DHT22;3533;51.246;6.850;2023-03-29T15:07:02;18.30;42.30
6986;DHT22;3533;51.246;6.850;2023-03-29T15:09:31;18.30;42.20
6986;DHT22;3533;51.246;6.850;2023-03-29T15:11:59;18.30;42.30
6986;DHT22;3533;51.246;6.850;2023-03-29T15:14:29;18.30;42.30
6986;DHT22;3533;51.246;6.850;2023-03-29T15:17:18;18.30;42.30
6986;DHT22;3533;51.246;6.850;2023-03-29T15:19:46;18.30;42.30
6986;DHT22;3533;51.246;6.850;2023-03-29T15:22:15;18.30;42.30
6986;DHT22;3533;51.246;6.850;2023-03-29T15:24:42;18.30;42.30
6986;DHT22;3533;51.246;6.850;2023-03-29T15:27:17;18.30;42.30
6986;DHT22;3533;51.246;6.850;2023-03-29T15:29:45;18.30;42.30
6986;DHT22;3533;51.246;6.850;2023-03-29T15:32:30;18.30;42.30
6986;DHT22;3533;51.246;6.850;2023-03-29T15:34:59;18.30;42.30
6986;DHT22;3533;51.246;6.850;2023-03-29T15:37:26;18.30;42.30
6986;DHT22;3533;51.246;6.850;2023-03-29T15:39:51;18.30;42.30
6986;DHT22;3533;51.246;6.850;2023-03-29T15:42:17;18.30;42.30
6986;DHT22;3533;51.246;6.850;2023-03-29T15:44:43;18.20;42.30
6986;DHT22;3533;51.246;6.850;2023-03-29T15:47:12;18.30;42.40
6986;DHT22;3533;51.246;6.850;2023-03-29T15:49:38;18.30;43.10
6986;DHT22;3533;51.246;6.850;2023-03-29T15:52:04;18.30;42.30
6986;DHT22;3533;51.246;6.850;2023-03-29T15:54:29;18.30;43.10
6986;DHT22;3533;51.246;6.850;2023-03-29T15:57:03;18.30;42.30
6986;DHT22;3533;51.246;6.850;2023-03-29T15:59:30;18.30;42.30
6986;DHT22;3533;51.246;6.850;2023-03-29T16:01:56;18.30;42.30
6986;DHT22;3533;51.246;6.850;2023-03-29T16:04:23;18.30;43.10
6986;DHT22;3533;51.246;6.850;2023-03-29T16:06:51;18.30;42.30
6986;DHT22;3533;51.246;6.850;2023-03-29T16:09:18;18.30;42.40
6986;DHT22;3533;51.246;6.850;2023-03-29T16:11:45;18.30;42.40
6986;DHT22;3533;51.246;6.850;2023-03-29T16:14:23;18.30;42.30
6986;DHT22;3533;51.246;6.850;2023-03-29T16:16:51;18.30;42.30
6986;DHT22;3533;51.246;6.850;2023-03-29T16:19:17;18.30;42.30
6986;DHT22;3533;51.246;6.850;2023-03-29T16:21:43;18.30;42.40
6986;DHT22;3533;51.246;6.850;2023-03-29T16:24:15;18.30;42.40
6986;DHT22;3533;51.246;6.850;2023-03-29T16:26:41;18.30;42.30
6986;DHT22;3533;51.246;6.850;2023-03-29T16:29:07;18.30;42.30
6986;DHT22;3533;51.246;6.850;2023-03-29T16:31:33;18.30;42.40
6986;DHT22;3533;51.246;6.850;2023-03-29T16:33:59;18.30;42.30
6986;DHT22;3533;51.246;6.850;2023-03-29T16:36:24;18.30;42.30
6986;DHT22;3533;51.246;6.850;2023-03-29T16:38:50;18.30;42.40
6986;DHT22;3533;51.246;6.850;2023-03-29T16:41:16;18.30;42.50
6986;DHT22;3533;51.246;6.850;2023-03-29T16:43:42;18.30;42.40
6986;DHT22;3533;51.246;6.850;2023-03-29T16:46:09;18.30;42.50
6986;DHT22;3533;51.246;6.850;2023-03-29T16:48:35;18.30;42.50
6986;DHT22;3533;51.246;6.850;2023-03-29T16:51:01;18.30;42.50
6986;DHT22;3533;51.246;6.850;2023-03-29T16:53:27;18.30;42.60
6986;DHT22;3533;51.246;6.850;2023-03-29T16:55:53;18.30;42.50
6986;DHT22;3533;51.246;6.850;2023-03-29T16:58:18;18.30;42.50
6986;DHT22;3533;51.246;6.850;2023-03-29T17:00:44;18.30;42.50
6986;DHT22;3533;51.246;6.850;2023-03-29T17:03:10;18.40;42.60
6986;DHT22;3533;51.246;6.850;2023-03-29T17:05:36;18.40;42.60
6986;DHT22;3533;51.246;6.850;2023-03-29T17:08:06;18.40;42.50
6986;DHT22;3533;51.246;6.850;2023-03-29T17:10:31;18.40;42.50
6986;DHT22;3533;51.246;6.850;2023-03-29T17:12:57;18.40;42.50
6986;DHT22;3533;51.246;6.850;2023-03-29T17:15:22;18.40;42.40
6986;DHT22;3533;51.246;6.850;2023-03-29T17:17:48;18.40;42.40
6986;DHT22;3533;51.246;6.850;2023-03-29T17:20:13;18.40;42.50
6986;DHT22;3533;51.246;6.850;2023-03-29T17:22:40;18.40;42.40
6986;DHT22;3533;51.246;6.850;2023-03-29T17:25:07;18.40;42.50
6986;DHT22;3533;51.246;6.850;2023-03-29T17:27:33;18.40;42.50
6986;DHT22;3533;51.246;6.850;2023-03-29T17:29:59;18.40;43.00
6986;DHT22;3533;51.246;6.850;2023-03-29T17:32:25;18.40;42.50
6986;DHT22;3533;51.246;6.850;2023-03-29T17:34:51;18.40;42.50
6986;DHT22;3533;51.246;6.850;2023-03-29T17:37:18;18.40;42.60
6986;DHT22;3533;51.246;6.850;2023-03-29T17:39:44;18.40;42.60
6986;DHT22;3533;51.246;6.850;2023-03-29T17:42:10;18.40;42.60
6986;DHT22;3533;51.246;6.850;2023-03-29T17:44:35;18.40;42.60
6986;DHT22;3533;51.246;6.850;2023-03-29T17:47:01;18.40;42.70
6986;DHT22;3533;51.246;6.850;2023-03-29T17:49:26;18.40;42.60
6986;DHT22;3533;51.246;6.850;2023-03-29T17:51:52;18.40;42.70
6986;DHT22;3533;51.246;6.850;2023-03-29T17:54:17;18.40;42.70
6986;DHT22;3533;51.246;6.850;2023-03-29T17:56:43;18.40;42.70